sensor_id;sensor_type;location;lat;lon;timestamp;P1;durP1;ratioP1;P2;durP2;ratioP2
9413;SDS011;4746;35.664;139.738;2024-02-26T00:02:04;0.77;;;0.57;;
9413;SDS011;4746;35.664;139.738;2024-02-26T00:04:32;0.50;;;0.50;;
9413;SDS011;4746;35.664;139.738;2024-02-26T00:06:59;0.60;;;0.60;;
9413;SDS011;4746;35.664;139.738;2024-02-26T00:09:27;0.67;;;0.50;;
9413;SDS011;4746;35.664;139.738;2024-02-26T00:11:55;0.50;;;0.40;;
9413;SDS011;4746;35.664;139.738;2024-02-26T00:14:24;0.70;;;0.70;;
9413;SDS011;4746;35.664;139.738;2024-02-26T00:16:52;1.07;;;0.60;;
9413;SDS011;4746;35.664;139.738;2024-02-26T00:19:19;0.40;;;0.40;;
9413;SDS011;4746;35.664;139.738;2024-02-26T00:21:47;0.70;;;0.70;;
9413;SDS011;4746;35.664;139.738;2024-02-26T00:24:15;0.40;;;0.40;;
9413;SDS011;4746;35.664;139.738;2024-02-26T00:26:43;0.50;;;0.50;;
9413;SDS011;4746;35.664;139.738;2024-02-26T00:29:10;0.50;;;0.50;;
9413;SDS011;4746;35.664;139.738;2024-02-26T00:31:38;2.57;;;0.70;;
9413;SDS011;4746;35.664;139.738;2024-02-26T00:34:06;0.30;;;0.30;;
9413;SDS011;4746;35.664;139.738;2024-02-26T00:36:33;0.53;;;0.50;;
9413;SDS011;4746;35.664;139.738;2024-02-26T00:39:01;0.50;;;0.50;;
9413;SDS011;4746;35.664;139.738;2024-02-26T00:41:29;0.50;;;0.50;;
9413;SDS011;4746;35.664;139.738;2024-02-26T00:43:57;1.33;;;0.60;;
9413;SDS011;4746;35.664;139.738;2024-02-26T00:46:25;0.63;;;0.43;;
9413;SDS011;4746;35.664;139.738;2024-02-26T00:48:53;0.77;;;0.60;;
9413;SDS011;4746;35.664;139.738;2024-02-26T00:51:22;0.50;;;0.50;;
9413;SDS011;4746;35.664;139.738;2024-02-26T00:53:50;0.50;;;0.50;;
9413;SDS011;4746;35.664;139.738;2024-02-26T00:56:22;0.50;;;0.50;;
9413;SDS011;4746;35.664;139.738;2024-02-26T00:58:52;0.40;;;0.40;;
9413;SDS011;4746;35.664;139.738;2024-02-26T01:01:20;0.83;;;0.50;;
9413;SDS011;4746;35.664;139.738;2024-02-26T01:03:48;0.40;;;0.40;;
9413;SDS011;4746;35.664;139.738;2024-02-26T01:06:16;1.47;;;0.50;;
9413;SDS011;4746;35.664;139.738;2024-02-26T01:08:43;0.50;;;0.50;;
9413;SDS011;4746;35.664;139.738;2024-02-26T01:11:11;0.40;;;0.40;;
9413;SDS011;4746;35.664;139.738;2024-02-26T01:13:39;0.50;;;0.50;;
9413;SDS011;4746;35.664;139.738;2024-02-26T01:16:06;0.50;;;0.50;;
9413;SDS011;4746;35.664;139.738;2024-02-26T01:18:34;0.60;;;0.60;;
9413;SDS011;4746;35.664;139.738;2024-02-26T01:21:01;0.47;;;0.47;;
9413;SDS011;4746;35.664;139.738;2024-02-26T01:23:32;1.13;;;0.60;;
9413;SDS011;4746;35.664;139.738;2024-02-26T01:26:02;0.53;;;0.53;;
9413;SDS011;4746;35.664;139.738;2024-02-26T01:28:30;0.47;;;0.47;;
9413;SDS011;4746;35.664;139.738;2024-02-26T01:30:59;0.43;;;0.43;;
9413;SDS011;4746;35.664;139.738;2024-02-26T01:33:26;0.50;;;0.50;;
9413;SDS011;4746;35.664;139.738;2024-02-26T01:35:56;0.40;;;0.40;;
9413;SDS011;4746;35.664;139.738;2024-02-26T01:38:26;0.50;;;0.50;;
9413;SDS011;4746;35.664;139.738;2024-02-26T01:40:54;0.60;;;0.60;;
9413;SDS011;4746;35.664;139.738;2024-02-26T01:43:23;0.50;;;0.50;;
9413;SDS011;4746;35.664;139.738;2024-02-26T01:45:53;0.50;;;0.50;;
9413;SDS011;4746;35.664;139.738;2024-02-26T01:48:21;0.53;;;0.50;;
9413;SDS011;4746;35.664;139.738;2024-02-26T01:50:49;0.60;;;0.60;;
9413;SDS011;4746;35.664;139.738;2024-02-26T01:53:17;0.40;;;0.40;;
9413;SDS011;4746;35.664;139.738;2024-02-26T01:55:46;0.40;;;0.40;;
9413;SDS011;4746;35.664;139.738;2024-02-26T01:58:14;0.50;;;0.50;;
9413;SDS011;4746;35.664;139.738;2024-02-26T02:00:44;1.20;;;0.50;;
9413;SDS011;4746;35.664;139.738;2024-02-26T02:03:12;0.47;;;0.40;;
9413;SDS011;4746;35.664;139.738;2024-02-26T02:05:40;1.37;;;0.50;;
9413;SDS011;4746;35.664;139.738;2024-02-26T02:08:09;0.50;;;0.50;;
9413;SDS011;4746;35.664;139.738;2024-02-26T02:10:41;0.50;;;0.50;;
9413;SDS011;4746;35.664;139.738;2024-02-26T02:13:09;0.90;;;0.60;;
9413;SDS011;4746;35.664;139.738;2024-02-26T02:15:41;1.17;;;0.60;;
9413;SDS011;4746;35.664;139.738;2024-02-26T02:18:08;0.53;;;0.53;;
9413;SDS011;4746;35.664;139.738;2024-02-26T02:20:36;0.47;;;0.47;;
9413;SDS011;4746;35.664;139.738;2024-02-26T02:23:04;0.90;;;0.53;;
9413;SDS011;4746;35.664;139.738;2024-02-26T02:25:34;0.73;;;0.50;;
9413;SDS011;4746;35.664;139.738;2024-02-26T02:28:02;0.40;;;0.40;;
9413;SDS011;4746;35.664;139.738;2024-02-26T02:30:30;1.90;;;0.63;;
9413;SDS011;4746;35.664;139.738;2024-02-26T02:33:01;1.37;;;0.63;;
9413;SDS011;4746;35.664;139.738;2024-02-26T02:35:31;0.50;;;0.50;;
9413;SDS011;4746;35.664;139.738;2024-02-26T02:37:58;1.77;;;0.50;;
9413;SDS011;4746;35.664;139.738;2024-02-26T02:40:26;0.50;;;0.50;;
9413;SDS011;4746;35.664;139.738;2024-02-26T02:42:53;0.50;;;0.50;;
9413;SDS011;4746;35.664;139.738;2024-02-26T02:45:21;1.43;;;1.23;;
9413;SDS011;4746;35.664;139.738;2024-02-26T02:47:49;0.30;;;0.30;;
9413;SDS011;4746;35.664;139.738;2024-02-26T02:50:16;0.50;;;0.50;;
9413;SDS011;4746;35.664;139.738;2024-02-26T02:52:44;0.50;;;0.50;;
9413;SDS011;4746;35.664;139.738;2024-02-26T02:55:12;0.40;;;0.40;;
9413;SDS011;4746;35.664;139.738;2024-02-26T02:57:39;0.73;;;0.40;;
9413;SDS011;4746;35.664;139.738;2024-02-26T03:00:11;1.03;;;0.63;;
9413;SDS011;4746;35.664;139.738;2024-02-26T03:02:39;0.30;;;0.30;;
9413;SDS011;4746;35.664;139.738;2024-02-26T03:05:10;0.90;;;0.60;;
9413;SDS011;4746;35.664;139.738;2024-02-26T03:07:40;1.07;;;0.80;;
9413;SDS011;4746;35.664;139.738;2024-02-26T03:10:07;1.07;;;0.47;;
9413;SDS011;4746;35.664;139.738;2024-02-26T03:12:35;0.50;;;0.50;;
9413;SDS011;4746;35.664;139.738;2024-02-26T03:15:03;1.77;;;0.50;;
9413;SDS011;4746;35.664;139.738;2024-02-26T03:17:31;1.70;;;1.60;;
9413;SDS011;4746;35.664;139.738;2024-02-26T03:19:58;0.87;;;0.70;;
9413;SDS011;4746;35.664;139.738;2024-02-26T03:22:26;0.70;;;0.60;;
9413;SDS011;4746;35.664;139.738;2024-02-26T03:24:53;0.50;;;0.50;;
9413;SDS011;4746;35.664;139.738;2024-02-26T03:27:21;0.60;;;0.60;;
9413;SDS011;4746;35.664;139.738;2024-02-26T03:29:49;4.47;;;1.00;;
9413;SDS011;4746;35.664;139.738;2024-02-26T03:32:18;0.70;;;0.70;;
9413;SDS011;4746;35.664;139.738;2024-02-26T03:34:45;0.40;;;0.40;;
9413;SDS011;4746;35.664;139.738;2024-02-26T03:37:13;0.47;;;0.43;;
9413;SDS011;4746;35.664;139.738;2024-02-26T03:39:40;1.37;;;0.53;;
9413;SDS011;4746;35.664;139.738;2024-02-26T03:42:08;0.53;;;0.50;;
9413;SDS011;4746;35.664;139.738;2024-02-26T03:44:36;0.30;;;0.30;;
9413;SDS011;4746;35.664;139.738;2024-02-26T03:47:07;0.70;;;0.30;;
9413;SDS011;4746;35.664;139.738;2024-02-26T03:49:35;0.50;;;0.50;;
9413;SDS011;4746;35.664;139.738;2024-02-26T03:52:03;1.17;;;0.60;;
9413;SDS011;4746;35.664;139.738;2024-02-26T03:54:31;0.47;;;0.40;;
9413;SDS011;4746;35.664;139.738;2024-02-26T03:56:58;1.43;;;0.70;;
9413;SDS011;4746;35.664;139.738;2024-02-26T03:59:28;0.40;;;0.40;;
9413;SDS011;4746;35.664;139.738;2024-02-26T04:01:55;0.57;;;0.50;;
9413;SDS011;4746;35.664;139.738;2024-02-26T04:04:28;0.50;;;0.50;;
9413;SDS011;4746;35.664;139.738;2024-02-26T04:07:05;0.70;;;0.67;;
9413;SDS011;4746;35.664;139.738;2024-02-26T04:09:33;0.57;;;0.53;;
9413;SDS011;4746;35.664;139.738;2024-02-26T04:12:01;1.60;;;0.50;;
9413;SDS011;4746;35.664;139.738;2024-02-26T04:14:30;0.40;;;0.40;;
9413;SDS011;4746;35.664;139.738;2024-02-26T04:17:02;0.40;;;0.40;;
9413;SDS011;4746;35.664;139.738;2024-02-26T04:19:30;0.50;;;0.30;;
9413;SDS011;4746;35.664;139.738;2024-02-26T04:21:58;1.10;;;0.50;;
9413;SDS011;4746;35.664;139.738;2024-02-26T04:24:26;0.40;;;0.40;;
9413;SDS011;4746;35.664;139.738;2024-02-26T04:26:55;0.37;;;0.37;;
9413;SDS011;4746;35.664;139.738;2024-02-26T04:29:23;0.30;;;0.30;;
9413;SDS011;4746;35.664;139.738;2024-02-26T04:31:51;0.20;;;0.20;;
9413;SDS011;4746;35.664;139.738;2024-02-26T04:34:18;0.40;;;0.40;;
9413;SDS011;4746;35.664;139.738;2024-02-26T04:36:46;0.33;;;0.33;;
9413;SDS011;4746;35.664;139.738;2024-02-26T04:39:13;0.30;;;0.30;;
9413;SDS011;4746;35.664;139.738;2024-02-26T04:41:49;0.63;;;0.30;;
9413;SDS011;4746;35.664;139.738;2024-02-26T04:44:33;0.30;;;0.30;;
9413;SDS011;4746;35.664;139.738;2024-02-26T04:47:04;1.43;;;0.40;;
9413;SDS011;4746;35.664;139.738;2024-02-26T04:49:33;0.33;;;0.33;;
9413;SDS011;4746;35.664;139.738;2024-02-26T04:52:00;0.83;;;0.40;;
9413;SDS011;4746;35.664;139.738;2024-02-26T04:54:28;3.00;;;0.37;;
9413;SDS011;4746;35.664;139.738;2024-02-26T04:56:56;0.30;;;0.30;;
9413;SDS011;4746;35.664;139.738;2024-02-26T04:59:24;1.30;;;0.30;;
9413;SDS011;4746;35.664;139.738;2024-02-26T05:01:51;0.30;;;0.30;;
9413;SDS011;4746;35.664;139.738;2024-02-26T05:04:19;0.20;;;0.20;;
9413;SDS011;4746;35.664;139.738;2024-02-26T05:06:47;2.57;;;0.33;;
9413;SDS011;4746;35.664;139.738;2024-02-26T05:09:14;0.37;;;0.37;;
9413;SDS011;4746;35.664;139.738;2024-02-26T05:11:42;0.20;;;0.20;;
9413;SDS011;4746;35.664;139.738;2024-02-26T05:14:12;0.47;;;0.40;;
9413;SDS011;4746;35.664;139.738;2024-02-26T05:16:39;0.20;;;0.10;;
9413;SDS011;4746;35.664;139.738;2024-02-26T05:19:11;1.50;;;0.30;;
9413;SDS011;4746;35.664;139.738;2024-02-26T05:21:38;2.30;;;0.30;;
9413;SDS011;4746;35.664;139.738;2024-02-26T05:24:08;0.20;;;0.20;;
9413;SDS011;4746;35.664;139.738;2024-02-26T05:26:36;0.33;;;0.30;;
9413;SDS011;4746;35.664;139.738;2024-02-26T05:29:13;0.30;;;0.30;;
9413;SDS011;4746;35.664;139.738;2024-02-26T05:31:47;0.47;;;0.30;;
9413;SDS011;4746;35.664;139.738;2024-02-26T05:34:20;1.80;;;0.27;;
9413;SDS011;4746;35.664;139.738;2024-02-26T05:36:59;0.50;;;0.20;;
9413;SDS011;4746;35.664;139.738;2024-02-26T05:39:32;4.87;;;0.30;;
9413;SDS011;4746;35.664;139.738;2024-02-26T05:42:05;0.17;;;0.13;;
9413;SDS011;4746;35.664;139.738;2024-02-26T05:44:34;1.80;;;0.20;;
9413;SDS011;4746;35.664;139.738;2024-02-26T05:47:02;0.30;;;0.20;;
9413;SDS011;4746;35.664;139.738;2024-02-26T05:49:33;0.93;;;0.30;;
9413;SDS011;4746;35.664;139.738;2024-02-26T05:52:10;0.40;;;0.20;;
9413;SDS011;4746;35.664;139.738;2024-02-26T05:54:37;0.70;;;0.33;;
9413;SDS011;4746;35.664;139.738;2024-02-26T05:57:05;0.20;;;0.20;;
9413;SDS011;4746;35.664;139.738;2024-02-26T05:59:35;1.17;;;0.30;;
9413;SDS011;4746;35.664;139.738;2024-02-26T06:02:09;1.83;;;0.27;;
9413;SDS011;4746;35.664;139.738;2024-02-26T06:04:43;1.60;;;0.30;;
9413;SDS011;4746;35.664;139.738;2024-02-26T06:07:12;0.53;;;0.20;;
9413;SDS011;4746;35.664;139.738;2024-02-26T06:09:40;1.30;;;0.17;;
9413;SDS011;4746;35.664;139.738;2024-02-26T06:12:09;0.40;;;0.27;;
9413;SDS011;4746;35.664;139.738;2024-02-26T06:14:38;0.20;;;0.20;;
9413;SDS011;4746;35.664;139.738;2024-02-26T06:17:07;0.77;;;0.10;;
9413;SDS011;4746;35.664;139.738;2024-02-26T06:19:35;0.10;;;0.10;;
9413;SDS011;4746;35.664;139.738;2024-02-26T06:22:03;0.27;;;0.27;;
9413;SDS011;4746;35.664;139.738;2024-02-26T06:24:33;0.20;;;0.20;;
9413;SDS011;4746;35.664;139.738;2024-02-26T06:27:00;0.33;;;0.10;;
9413;SDS011;4746;35.664;139.738;2024-02-26T06:29:29;0.20;;;0.20;;
9413;SDS011;4746;35.664;139.738;2024-02-26T06:31:56;0.20;;;0.20;;
9413;SDS011;4746;35.664;139.738;2024-02-26T06:34:24;0.30;;;0.20;;
9413;SDS011;4746;35.664;139.738;2024-02-26T06:36:51;1.07;;;0.10;;
9413;SDS011;4746;35.664;139.738;2024-02-26T06:39:19;0.50;;;0.10;;
9413;SDS011;4746;35.664;139.738;2024-02-26T06:41:49;0.37;;;0.20;;
9413;SDS011;4746;35.664;139.738;2024-02-26T06:44:26;1.37;;;0.20;;
9413;SDS011;4746;35.664;139.738;2024-02-26T06:47:00;0.50;;;0.30;;
9413;SDS011;4746;35.664;139.738;2024-02-26T06:49:29;1.30;;;0.30;;
9413;SDS011;4746;35.664;139.738;2024-02-26T06:51:57;0.97;;;0.20;;
9413;SDS011;4746;35.664;139.738;2024-02-26T06:54:24;0.20;;;0.20;;
9413;SDS011;4746;35.664;139.738;2024-02-26T06:56:54;2.33;;;0.30;;
9413;SDS011;4746;35.664;139.738;2024-02-26T06:59:31;0.20;;;0.20;;
9413;SDS011;4746;35.664;139.738;2024-02-26T07:02:00;1.47;;;0.40;;
9413;SDS011;4746;35.664;139.738;2024-02-26T07:04:28;0.20;;;0.20;;
9413;SDS011;4746;35.664;139.738;2024-02-26T07:06:59;1.30;;;0.50;;
9413;SDS011;4746;35.664;139.738;2024-02-26T07:09:26;1.93;;;0.97;;
9413;SDS011;4746;35.664;139.738;2024-02-26T07:11:54;0.40;;;0.30;;
9413;SDS011;4746;35.664;139.738;2024-02-26T07:14:22;0.20;;;0.20;;
9413;SDS011;4746;35.664;139.738;2024-02-26T07:16:50;0.20;;;0.20;;
9413;SDS011;4746;35.664;139.738;2024-02-26T07:19:18;0.20;;;0.20;;
9413;SDS011;4746;35.664;139.738;2024-02-26T07:21:45;0.20;;;0.13;;
9413;SDS011;4746;35.664;139.738;2024-02-26T07:24:15;0.93;;;0.30;;
9413;SDS011;4746;35.664;139.738;2024-02-26T07:26:43;0.20;;;0.20;;
9413;SDS011;4746;35.664;139.738;2024-02-26T07:29:13;1.90;;;0.40;;
9413;SDS011;4746;35.664;139.738;2024-02-26T07:31:42;1.07;;;0.30;;
9413;SDS011;4746;35.664;139.738;2024-02-26T07:34:13;0.20;;;0.20;;
9413;SDS011;4746;35.664;139.738;2024-02-26T07:36:40;1.40;;;0.27;;
9413;SDS011;4746;35.664;139.738;2024-02-26T07:39:08;0.43;;;0.43;;
9413;SDS011;4746;35.664;139.738;2024-02-26T07:41:36;2.63;;;0.63;;
9413;SDS011;4746;35.664;139.738;2024-02-26T07:44:04;0.30;;;0.30;;
9413;SDS011;4746;35.664;139.738;2024-02-26T07:46:34;0.47;;;0.40;;
9413;SDS011;4746;35.664;139.738;2024-02-26T07:49:04;1.93;;;0.40;;
9413;SDS011;4746;35.664;139.738;2024-02-26T07:51:33;0.63;;;0.30;;
9413;SDS011;4746;35.664;139.738;2024-02-26T07:54:01;2.43;;;0.60;;
9413;SDS011;4746;35.664;139.738;2024-02-26T07:56:29;0.67;;;0.30;;
9413;SDS011;4746;35.664;139.738;2024-02-26T07:59:02;0.50;;;0.30;;
9413;SDS011;4746;35.664;139.738;2024-02-26T08:01:29;1.23;;;0.50;;
9413;SDS011;4746;35.664;139.738;2024-02-26T08:04:00;1.23;;;0.50;;
9413;SDS011;4746;35.664;139.738;2024-02-26T08:06:27;1.87;;;0.50;;
9413;SDS011;4746;35.664;139.738;2024-02-26T08:08:55;1.20;;;0.50;;
9413;SDS011;4746;35.664;139.738;2024-02-26T08:11:22;2.37;;;0.57;;
9413;SDS011;4746;35.664;139.738;2024-02-26T08:13:50;1.50;;;0.67;;
9413;SDS011;4746;35.664;139.738;2024-02-26T08:16:17;1.33;;;0.40;;
9413;SDS011;4746;35.664;139.738;2024-02-26T08:18:45;1.03;;;0.70;;
9413;SDS011;4746;35.664;139.738;2024-02-26T08:21:12;2.83;;;0.90;;
9413;SDS011;4746;35.664;139.738;2024-02-26T08:23:40;2.03;;;0.53;;
9413;SDS011;4746;35.664;139.738;2024-02-26T08:26:09;1.43;;;0.83;;
9413;SDS011;4746;35.664;139.738;2024-02-26T08:28:37;2.93;;;0.60;;
9413;SDS011;4746;35.664;139.738;2024-02-26T08:31:05;2.50;;;0.80;;
9413;SDS011;4746;35.664;139.738;2024-02-26T08:33:36;1.50;;;0.70;;
9413;SDS011;4746;35.664;139.738;2024-02-26T08:36:04;2.13;;;0.80;;
9413;SDS011;4746;35.664;139.738;2024-02-26T08:38:32;1.43;;;1.23;;
9413;SDS011;4746;35.664;139.738;2024-02-26T08:41:04;3.50;;;0.80;;
9413;SDS011;4746;35.664;139.738;2024-02-26T08:43:34;3.27;;;0.90;;
9413;SDS011;4746;35.664;139.738;2024-02-26T08:46:03;5.10;;;0.83;;
9413;SDS011;4746;35.664;139.738;2024-02-26T08:48:35;1.67;;;0.90;;
9413;SDS011;4746;35.664;139.738;2024-02-26T08:51:07;1.50;;;0.70;;
9413;SDS011;4746;35.664;139.738;2024-02-26T08:53:36;2.30;;;0.97;;
9413;SDS011;4746;35.664;139.738;2024-02-26T08:56:05;3.43;;;0.90;;
9413;SDS011;4746;35.664;139.738;2024-02-26T08:58:33;2.73;;;0.77;;
9413;SDS011;4746;35.664;139.738;2024-02-26T09:01:01;1.10;;;0.83;;
9413;SDS011;4746;35.664;139.738;2024-02-26T09:03:29;2.50;;;0.70;;
9413;SDS011;4746;35.664;139.738;2024-02-26T09:05:56;2.90;;;1.00;;
9413;SDS011;4746;35.664;139.738;2024-02-26T09:08:24;1.90;;;0.90;;
9413;SDS011;4746;35.664;139.738;2024-02-26T09:10:52;3.00;;;0.90;;
9413;SDS011;4746;35.664;139.738;2024-02-26T09:13:20;1.90;;;0.90;;
9413;SDS011;4746;35.664;139.738;2024-02-26T09:15:47;1.00;;;0.90;;
9413;SDS011;4746;35.664;139.738;2024-02-26T09:18:15;2.67;;;0.93;;
9413;SDS011;4746;35.664;139.738;2024-02-26T09:20:42;1.53;;;0.80;;
9413;SDS011;4746;35.664;139.738;2024-02-26T09:23:10;1.83;;;0.80;;
9413;SDS011;4746;35.664;139.738;2024-02-26T09:25:38;1.80;;;1.00;;
9413;SDS011;4746;35.664;139.738;2024-02-26T09:28:05;1.27;;;1.03;;
9413;SDS011;4746;35.664;139.738;2024-02-26T09:30:34;1.50;;;1.00;;
9413;SDS011;4746;35.664;139.738;2024-02-26T09:33:01;2.77;;;1.00;;
9413;SDS011;4746;35.664;139.738;2024-02-26T09:35:29;3.20;;;1.30;;
9413;SDS011;4746;35.664;139.738;2024-02-26T09:37:57;2.73;;;1.00;;
9413;SDS011;4746;35.664;139.738;2024-02-26T09:40:24;2.97;;;1.50;;
9413;SDS011;4746;35.664;139.738;2024-02-26T09:42:58;3.93;;;1.37;;
9413;SDS011;4746;35.664;139.738;2024-02-26T09:45:30;3.43;;;1.23;;
9413;SDS011;4746;35.664;139.738;2024-02-26T09:48:01;1.73;;;1.00;;
9413;SDS011;4746;35.664;139.738;2024-02-26T09:50:34;1.53;;;1.10;;
9413;SDS011;4746;35.664;139.738;2024-02-26T09:53:02;2.00;;;1.13;;
9413;SDS011;4746;35.664;139.738;2024-02-26T09:55:33;1.47;;;1.37;;
9413;SDS011;4746;35.664;139.738;2024-02-26T09:58:01;1.07;;;0.90;;
9413;SDS011;4746;35.664;139.738;2024-02-26T10:00:36;1.47;;;0.97;;
9413;SDS011;4746;35.664;139.738;2024-02-26T10:03:09;1.97;;;1.10;;
9413;SDS011;4746;35.664;139.738;2024-02-26T10:05:41;1.57;;;1.10;;
9413;SDS011;4746;35.664;139.738;2024-02-26T10:08:10;4.33;;;1.60;;
9413;SDS011;4746;35.664;139.738;2024-02-26T10:10:40;1.60;;;0.90;;
9413;SDS011;4746;35.664;139.738;2024-02-26T10:13:08;1.53;;;0.90;;
9413;SDS011;4746;35.664;139.738;2024-02-26T10:15:38;2.93;;;1.00;;
9413;SDS011;4746;35.664;139.738;2024-02-26T10:18:06;1.57;;;1.40;;
9413;SDS011;4746;35.664;139.738;2024-02-26T10:20:34;1.30;;;1.00;;
9413;SDS011;4746;35.664;139.738;2024-02-26T10:23:04;1.83;;;1.10;;
9413;SDS011;4746;35.664;139.738;2024-02-26T10:25:33;2.57;;;1.70;;
9413;SDS011;4746;35.664;139.738;2024-02-26T10:28:01;2.27;;;1.60;;
9413;SDS011;4746;35.664;139.738;2024-02-26T10:30:29;2.00;;;1.20;;
9413;SDS011;4746;35.664;139.738;2024-02-26T10:32:57;1.43;;;1.30;;
9413;SDS011;4746;35.664;139.738;2024-02-26T10:35:25;2.30;;;1.00;;
9413;SDS011;4746;35.664;139.738;2024-02-26T10:37:54;2.83;;;1.10;;
9413;SDS011;4746;35.664;139.738;2024-02-26T10:40:21;1.73;;;1.40;;
9413;SDS011;4746;35.664;139.738;2024-02-26T10:42:49;2.97;;;1.53;;
9413;SDS011;4746;35.664;139.738;2024-02-26T10:45:17;1.07;;;1.00;;
9413;SDS011;4746;35.664;139.738;2024-02-26T10:47:45;1.47;;;1.07;;
9413;SDS011;4746;35.664;139.738;2024-02-26T10:50:13;2.00;;;1.20;;
9413;SDS011;4746;35.664;139.738;2024-02-26T10:52:42;0.87;;;0.87;;
9413;SDS011;4746;35.664;139.738;2024-02-26T10:55:16;2.00;;;1.03;;
9413;SDS011;4746;35.664;139.738;2024-02-26T10:57:45;1.47;;;1.37;;
9413;SDS011;4746;35.664;139.738;2024-02-26T11:00:16;1.30;;;1.20;;
9413;SDS011;4746;35.664;139.738;2024-02-26T11:02:45;3.73;;;1.50;;
9413;SDS011;4746;35.664;139.738;2024-02-26T11:05:14;1.23;;;0.80;;
9413;SDS011;4746;35.664;139.738;2024-02-26T11:07:43;1.63;;;1.33;;
9413;SDS011;4746;35.664;139.738;2024-02-26T11:10:13;3.37;;;1.37;;
9413;SDS011;4746;35.664;139.738;2024-02-26T11:12:44;2.30;;;1.20;;
9413;SDS011;4746;35.664;139.738;2024-02-26T11:15:14;1.00;;;1.00;;
9413;SDS011;4746;35.664;139.738;2024-02-26T11:17:44;1.63;;;0.93;;
9413;SDS011;4746;35.664;139.738;2024-02-26T11:20:14;1.57;;;1.10;;
9413;SDS011;4746;35.664;139.738;2024-02-26T11:22:43;1.90;;;0.97;;
9413;SDS011;4746;35.664;139.738;2024-02-26T11:25:11;0.87;;;0.80;;
9413;SDS011;4746;35.664;139.738;2024-02-26T11:27:49;2.17;;;0.80;;
9413;SDS011;4746;35.664;139.738;2024-02-26T11:30:28;1.40;;;0.80;;
9413;SDS011;4746;35.664;139.738;2024-02-26T11:33:04;0.70;;;0.70;;
9413;SDS011;4746;35.664;139.738;2024-02-26T11:35:37;1.70;;;1.10;;
9413;SDS011;4746;35.664;139.738;2024-02-26T11:38:06;1.80;;;1.00;;
9413;SDS011;4746;35.664;139.738;2024-02-26T11:40:37;1.17;;;0.90;;
9413;SDS011;4746;35.664;139.738;2024-02-26T11:43:06;1.33;;;1.00;;
9413;SDS011;4746;35.664;139.738;2024-02-26T11:48:14;0.93;;;0.80;;
9413;SDS011;4746;35.664;139.738;2024-02-26T11:50:52;1.10;;;0.80;;
9413;SDS011;4746;35.664;139.738;2024-02-26T11:53:28;1.77;;;0.90;;
9413;SDS011;4746;35.664;139.738;2024-02-26T11:58:44;1.80;;;1.03;;
9413;SDS011;4746;35.664;139.738;2024-02-26T12:04:15;0.83;;;0.83;;
9413;SDS011;4746;35.664;139.738;2024-02-26T12:06:56;2.57;;;0.73;;
9413;SDS011;4746;35.664;139.738;2024-02-26T12:09:41;0.70;;;0.70;;
9413;SDS011;4746;35.664;139.738;2024-02-26T12:12:10;1.23;;;0.90;;
9413;SDS011;4746;35.664;139.738;2024-02-26T12:14:52;0.90;;;0.90;;
9413;SDS011;4746;35.664;139.738;2024-02-26T12:17:23;1.00;;;1.00;;
9413;SDS011;4746;35.664;139.738;2024-02-26T12:19:52;3.90;;;1.10;;
9413;SDS011;4746;35.664;139.738;2024-02-26T12:22:21;1.20;;;1.10;;
9413;SDS011;4746;35.664;139.738;2024-02-26T12:25:00;1.03;;;1.03;;
9413;SDS011;4746;35.664;139.738;2024-02-26T12:27:31;1.30;;;0.90;;
9413;SDS011;4746;35.664;139.738;2024-02-26T12:30:02;1.10;;;1.00;;
9413;SDS011;4746;35.664;139.738;2024-02-26T12:32:32;1.00;;;1.00;;
9413;SDS011;4746;35.664;139.738;2024-02-26T12:35:00;1.40;;;1.07;;
9413;SDS011;4746;35.664;139.738;2024-02-26T12:37:28;2.03;;;1.03;;
9413;SDS011;4746;35.664;139.738;2024-02-26T12:39:56;1.70;;;1.37;;
9413;SDS011;4746;35.664;139.738;2024-02-26T12:42:23;0.83;;;0.83;;
9413;SDS011;4746;35.664;139.738;2024-02-26T12:44:52;1.57;;;1.20;;
9413;SDS011;4746;35.664;139.738;2024-02-26T12:47:20;2.93;;;1.10;;
9413;SDS011;4746;35.664;139.738;2024-02-26T12:49:47;2.00;;;1.40;;
9413;SDS011;4746;35.664;139.738;2024-02-26T12:52:16;1.17;;;1.07;;
9413;SDS011;4746;35.664;139.738;2024-02-26T12:54:44;1.63;;;1.00;;
9413;SDS011;4746;35.664;139.738;2024-02-26T12:57:12;1.20;;;1.10;;
9413;SDS011;4746;35.664;139.738;2024-02-26T12:59:39;2.03;;;0.90;;
9413;SDS011;4746;35.664;139.738;2024-02-26T13:02:07;0.90;;;0.90;;
9413;SDS011;4746;35.664;139.738;2024-02-26T13:04:37;1.20;;;1.10;;
9413;SDS011;4746;35.664;139.738;2024-02-26T13:07:07;1.13;;;1.10;;
9413;SDS011;4746;35.664;139.738;2024-02-26T13:09:34;1.00;;;1.00;;
9413;SDS011;4746;35.664;139.738;2024-02-26T13:12:06;1.73;;;1.10;;
9413;SDS011;4746;35.664;139.738;2024-02-26T13:14:34;2.13;;;1.30;;
9413;SDS011;4746;35.664;139.738;2024-02-26T13:17:02;1.67;;;1.20;;
9413;SDS011;4746;35.664;139.738;2024-02-26T13:19:32;1.10;;;1.00;;
9413;SDS011;4746;35.664;139.738;2024-02-26T13:22:04;1.10;;;1.00;;
9413;SDS011;4746;35.664;139.738;2024-02-26T13:24:35;1.20;;;1.07;;
9413;SDS011;4746;35.664;139.738;2024-02-26T13:27:03;1.30;;;1.20;;
9413;SDS011;4746;35.664;139.738;2024-02-26T13:29:31;1.20;;;1.10;;
9413;SDS011;4746;35.664;139.738;2024-02-26T13:31:59;2.47;;;0.93;;
9413;SDS011;4746;35.664;139.738;2024-02-26T13:34:28;0.90;;;0.80;;
9413;SDS011;4746;35.664;139.738;2024-02-26T13:36:56;1.00;;;1.00;;
9413;SDS011;4746;35.664;139.738;2024-02-26T13:39:24;1.80;;;1.23;;
9413;SDS011;4746;35.664;139.738;2024-02-26T13:41:54;1.07;;;0.83;;
9413;SDS011;4746;35.664;139.738;2024-02-26T13:44:23;3.20;;;1.00;;
9413;SDS011;4746;35.664;139.738;2024-02-26T13:46:50;1.13;;;1.13;;
9413;SDS011;4746;35.664;139.738;2024-02-26T13:49:18;0.90;;;0.80;;
9413;SDS011;4746;35.664;139.738;2024-02-26T13:51:46;1.37;;;1.03;;
9413;SDS011;4746;35.664;139.738;2024-02-26T13:54:13;1.10;;;1.00;;
9413;SDS011;4746;35.664;139.738;2024-02-26T13:56:41;1.23;;;0.97;;
9413;SDS011;4746;35.664;139.738;2024-02-26T13:59:09;2.80;;;1.00;;
9413;SDS011;4746;35.664;139.738;2024-02-26T14:01:37;1.00;;;1.00;;
9413;SDS011;4746;35.664;139.738;2024-02-26T14:04:04;1.00;;;1.00;;
9413;SDS011;4746;35.664;139.738;2024-02-26T14:06:34;0.93;;;0.80;;
9413;SDS011;4746;35.664;139.738;2024-02-26T14:09:02;1.67;;;1.17;;
9413;SDS011;4746;35.664;139.738;2024-02-26T14:11:29;1.30;;;1.00;;
9413;SDS011;4746;35.664;139.738;2024-02-26T14:13:57;1.40;;;1.30;;
9413;SDS011;4746;35.664;139.738;2024-02-26T14:16:25;2.20;;;0.90;;
9413;SDS011;4746;35.664;139.738;2024-02-26T14:18:52;2.37;;;1.00;;
9413;SDS011;4746;35.664;139.738;2024-02-26T14:21:20;0.80;;;0.80;;
9413;SDS011;4746;35.664;139.738;2024-02-26T14:23:47;1.23;;;1.03;;
9413;SDS011;4746;35.664;139.738;2024-02-26T14:26:15;1.10;;;1.00;;
9413;SDS011;4746;35.664;139.738;2024-02-26T14:28:44;1.10;;;0.77;;
9413;SDS011;4746;35.664;139.738;2024-02-26T14:31:12;0.93;;;0.93;;
9413;SDS011;4746;35.664;139.738;2024-02-26T14:33:44;1.57;;;1.03;;
9413;SDS011;4746;35.664;139.738;2024-02-26T14:36:11;0.90;;;0.90;;
9413;SDS011;4746;35.664;139.738;2024-02-26T14:38:40;2.20;;;1.17;;
9413;SDS011;4746;35.664;139.738;2024-02-26T14:41:07;0.90;;;0.90;;
9413;SDS011;4746;35.664;139.738;2024-02-26T14:43:35;0.97;;;0.90;;
9413;SDS011;4746;35.664;139.738;2024-02-26T14:46:03;0.70;;;0.70;;
9413;SDS011;4746;35.664;139.738;2024-02-26T14:48:31;0.80;;;0.80;;
9413;SDS011;4746;35.664;139.738;2024-02-26T14:50:59;1.20;;;1.10;;
9413;SDS011;4746;35.664;139.738;2024-02-26T14:53:27;1.30;;;0.90;;
9413;SDS011;4746;35.664;139.738;2024-02-26T14:55:54;1.17;;;0.87;;
9413;SDS011;4746;35.664;139.738;2024-02-26T14:58:25;1.17;;;0.80;;
9413;SDS011;4746;35.664;139.738;2024-02-26T15:00:52;0.80;;;0.80;;
9413;SDS011;4746;35.664;139.738;2024-02-26T15:03:20;0.67;;;0.67;;
9413;SDS011;4746;35.664;139.738;2024-02-26T15:05:49;1.00;;;0.90;;
9413;SDS011;4746;35.664;139.738;2024-02-26T15:08:17;1.27;;;1.00;;